Time;durP1;ratioP1;P1;durP2;ratioP2;P2;SDS_P1;SDS_P2;PMS_P1;PMS_P2;Temp;Humidity;BMP_temperature;BMP_pressure;BME280_temperature;BME280_humidity;BME280_pressure;Samples;Min_cycle;Max_cycle;Signal;HPM_P1;HPM_P2
2021/12/17 00:00:57;;;;;;;11.13;6.73;;;;;;;6.63;100.00;102966.34;5070343;28;20205;-75
2021/12/17 00:03:34;;;;;;;7.27;6.47;;;;;;;6.69;100.00;102949.16;5070584;28;20543;-76
2021/12/17 00:08:39;;;;;;;7.57;5.97;;;;;;;6.69;100.00;102948.34;5070233;28;20178;-75
2021/12/17 00:11:06;;;;;;;9.33;4.97;;;;;;;6.62;100.00;102945.66;5069773;28;20241;-75
2021/12/17 00:13:33;;;;;;;8.97;5.70;;;;;;;6.61;100.00;102956.75;5069720;28;20175;-77
2021/12/17 00:15:59;;;;;;;5.73;4.47;;;;;;;6.54;100.00;102954.94;5070122;28;20170;-80
2021/12/17 00:18:36;;;;;;;4.50;4.00;;;;;;;6.51;100.00;102952.69;5070172;28;20261;-76
2021/12/17 00:53:24;;;;;;;9.73;6.90;;;;;;;6.77;100.00;102948.03;5070475;28;20526;-76
2021/12/17 00:55:49;;;;;;;11.73;6.67;;;;;;;6.78;100.00;102952.41;5069677;28;20166;-76
2021/12/17 00:58:15;;;;;;;8.23;5.13;;;;;;;6.80;100.00;102951.16;5069865;28;20583;-76
2021/12/17 01:00:40;;;;;;;8.20;5.53;;;;;;;6.83;100.00;102964.28;5069770;28;20232;-75
2021/12/17 01:03:06;;;;;;;9.10;4.90;;;;;;;6.85;100.00;102966.78;5069866;28;20221;-76
2021/12/17 01:05:31;;;;;;;7.23;5.63;;;;;;;6.90;100.00;102966.09;5069546;28;20697;-76
2021/12/17 01:07:59;;;;;;;9.97;6.63;;;;;;;6.93;100.00;102966.47;5069719;28;20232;-76
2021/12/17 01:10:32;;;;;;;7.47;6.00;;;;;;;6.94;100.00;102957.25;5069596;28;20210;-76
2021/12/17 01:12:58;;;;;;;7.53;6.77;;;;;;;6.97;100.00;102951.41;5069792;28;20178;-75
2021/12/17 01:15:25;;;;;;;8.67;6.60;;;;;;;6.95;100.00;102952.69;5069364;28;20566;-75
2021/12/17 01:17:55;;;;;;;6.63;5.20;;;;;;;6.92;100.00;102942.25;5069731;28;20189;-76
2021/12/17 01:35:21;;;;;;;9.83;6.97;;;;;;;7.00;100.00;102956.38;5073226;28;20343;-76
2021/12/17 01:36:24;;;;;;;8.87;5.87;;;;;;;6.97;100.00;102962.28;5072659;28;20592;-76
2021/12/17 01:44:02;;;;;;;9.03;6.10;;;;;;;6.92;100.00;102967.53;5073148;28;20190;-76
2021/12/17 01:46:31;;;;;;;8.67;6.67;;;;;;;6.94;100.00;102981.72;5072667;28;20674;-76
2021/12/17 01:59:53;;;;;;;9.50;7.40;;;;;;;6.91;100.00;102976.72;5072783;28;20171;-76
2021/12/17 02:02:20;;;;;;;9.73;7.80;;;;;;;6.93;100.00;102969.19;5072763;28;20174;-76
2021/12/17 02:04:45;;;;;;;8.13;7.13;;;;;;;6.97;100.00;102972.31;5072268;28;20173;-76
2021/12/17 02:07:11;;;;;;;11.77;7.97;;;;;;;6.98;100.00;102979.41;5072786;28;20257;-76
2021/12/17 02:28:47;;;;;;;12.17;7.37;;;;;;;6.77;100.00;102962.44;5072132;28;20178;-76
2021/12/17 02:31:26;;;;;;;7.90;6.90;;;;;;;6.72;100.00;102962.28;5071995;28;20255;-75
2021/12/17 02:33:53;;;;;;;12.87;9.00;;;;;;;6.72;100.00;102975.06;5067044;28;20213;-76
2021/12/17 02:36:23;;;;;;;12.23;9.07;;;;;;;6.75;100.00;102985.47;5068850;28;20216;-76
2021/12/17 02:38:49;;;;;;;11.73;8.13;;;;;;;6.76;100.00;102973.53;5064903;28;20175;-76
2021/12/17 02:46:42;;;;;;;11.93;8.77;;;;;;;6.62;100.00;102945.66;5063907;28;20220;-75
2021/12/17 02:49:08;;;;;;;9.83;7.67;;;;;;;6.59;100.00;102943.41;5071532;28;20190;-76
2021/12/17 02:51:34;;;;;;;11.63;7.63;;;;;;;6.56;100.00;102933.81;5071824;28;20331;-76
2021/12/17 02:54:00;;;;;;;12.10;7.37;;;;;;;6.55;100.00;102942.19;5071730;28;20204;-76
2021/12/17 02:56:27;;;;;;;13.47;7.80;;;;;;;6.49;100.00;102927.59;5071520;28;20174;-76
2021/12/17 02:58:54;;;;;;;13.93;8.50;;;;;;;6.51;100.00;102936.38;5071879;28;20174;-76
2021/12/17 03:01:20;;;;;;;13.10;7.33;;;;;;;6.53;100.00;102923.41;5071547;28;20170;-75
2021/12/17 03:03:49;;;;;;;9.77;7.27;;;;;;;6.56;100.00;102922.97;5071687;28;20273;-76
2021/12/17 03:06:15;;;;;;;16.17;8.40;;;;;;;6.62;100.00;102939.41;5071363;28;20170;-75
2021/12/17 03:08:41;;;;;;;11.53;9.53;;;;;;;6.66;100.00;102943.38;5071417;28;20649;-76
2021/12/17 03:11:06;;;;;;;10.50;8.63;;;;;;;6.74;100.00;102953.91;5071054;28;20194;-76
2021/12/17 03:13:34;;;;;;;14.90;8.73;;;;;;;6.81;100.00;102949.28;5071112;28;20236;-75
2021/12/17 03:16:11;;;;;;;12.43;9.17;;;;;;;6.87;100.00;102956.50;5071171;28;20196;-76
2021/12/17 03:18:59;;;;;;;12.70;8.77;;;;;;;6.90;100.00;102958.78;5074421;28;20493;-76
2021/12/17 03:24:09;;;;;;;12.57;8.63;;;;;;;6.84;100.00;102952.34;5070989;28;20213;-75
2021/12/17 03:26:35;;;;;;;9.27;7.40;;;;;;;6.81;100.00;102949.28;5070495;28;20202;-75
2021/12/17 03:29:06;;;;;;;10.80;7.03;;;;;;;6.78;100.00;102941.53;5070995;28;20531;-75
2021/12/17 03:31:33;;;;;;;15.53;8.10;;;;;;;6.77;100.00;102942.59;5071170;28;20198;-76
2021/12/17 03:34:16;;;;;;;9.53;7.27;;;;;;;6.74;100.00;102940.34;5071206;28;20224;-75
2021/12/17 03:36:41;;;;;;;9.90;7.70;;;;;;;6.70;100.00;102933.69;5071156;28;20553;-75
2021/12/17 03:39:07;;;;;;;9.57;7.17;;;;;;;6.69;100.00;102941.03;5071149;28;20475;-76
2021/12/17 03:41:40;;;;;;;12.33;8.23;;;;;;;6.71;100.00;102955.22;5070836;28;20171;-76
2021/12/17 03:44:07;;;;;;;10.10;8.17;;;;;;;6.72;100.00;102942.44;5070759;28;20171;-75
2021/12/17 03:46:33;;;;;;;12.30;8.30;;;;;;;6.72;100.00;102943.28;5070133;28;20599;-75
2021/12/17 03:48:59;;;;;;;9.67;7.10;;;;;;;6.74;100.00;102957.47;5071152;28;20232;-76
2021/12/17 03:51:25;;;;;;;11.90;8.20;;;;;;;6.77;100.00;102940.72;5070470;28;20205;-76
2021/12/17 03:53:56;;;;;;;13.57;8.33;;;;;;;6.79;100.00;102932.34;5070408;28;20641;-76
2021/12/17 03:56:23;;;;;;;13.93;8.47;;;;;;;6.82;100.00;102937.34;5070332;28;20178;-76
2021/12/17 03:58:52;;;;;;;10.70;7.33;;;;;;;6.88;100.00;102927.44;5070490;28;20179;-76
2021/12/17 04:01:17;;;;;;;11.73;8.33;;;;;;;6.95;100.00;102931.78;5070437;28;20170;-75
2021/12/17 04:03:43;;;;;;;11.77;8.67;;;;;;;7.01;100.00;102946.34;5070415;28;20634;-75
2021/12/17 04:06:08;;;;;;;16.07;8.00;;;;;;;6.99;100.00;102930.25;5070255;28;20175;-76
2021/12/17 04:08:34;;;;;;;14.53;9.57;;;;;;;7.06;100.00;102941.88;5070514;28;20178;-76
2021/12/17 04:11:05;;;;;;;11.97;8.80;;;;;;;7.09;100.00;102944.16;5070310;28;20233;-76
2021/12/17 04:13:37;;;;;;;15.13;9.60;;;;;;;7.09;100.00;102944.16;5070724;28;20265;-75
2021/12/17 04:16:07;;;;;;;19.67;9.60;;;;;;;7.09;100.00;102952.31;5070278;28;20654;-76
2021/12/17 04:18:35;;;;;;;16.17;8.90;;;;;;;7.05;100.00;102951.09;5070776;28;20261;-76
2021/12/17 04:21:03;;;;;;;9.80;7.93;;;;;;;7.02;100.00;102950.72;5070411;28;20626;-76
2021/12/17 04:23:28;;;;;;;9.27;7.53;;;;;;;6.96;100.00;102943.47;5070184;28;20277;-76
2021/12/17 04:25:54;;;;;;;9.20;7.83;;;;;;;6.88;100.00;102933.72;5070270;28;20543;-76
2021/12/17 04:28:20;;;;;;;10.47;7.90;;;;;;;6.78;100.00;102926.06;5070028;28;20220;-76
2021/12/17 04:30:47;;;;;;;10.73;7.83;;;;;;;6.75;100.00;102922.97;5070072;28;20733;-76
2021/12/17 04:33:13;;;;;;;16.67;9.03;;;;;;;6.69;100.00;102926.59;5069814;28;20182;-75
2021/12/17 04:35:39;;;;;;;14.93;9.27;;;;;;;6.65;100.00;102928.09;5069735;28;20257;-76
2021/12/17 04:38:06;;;;;;;15.57;9.40;;;;;;;6.62;100.00;102926.66;5070156;28;20176;-76
2021/12/17 04:40:32;;;;;;;12.07;9.20;;;;;;;6.69;100.00;102932.88;5070261;28;20166;-76
2021/12/17 04:45:55;;;;;;;12.30;8.53;;;;;;;6.64;100.00;102919.09;5069803;28;20393;-76
2021/12/17 04:59:16;;;;;;;19.87;8.87;;;;;;;6.44;100.00;102932.88;5073658;28;20173;-76
2021/12/17 05:01:42;;;;;;;14.80;9.20;;;;;;;6.44;100.00;102940.19;5073593;28;20261;-76
2021/12/17 05:04:07;;;;;;;13.27;9.53;;;;;;;6.45;100.00;102937.25;5073846;28;20182;-76
2021/12/17 05:06:33;;;;;;;14.87;8.87;;;;;;;6.49;100.00;102943.91;5073751;28;20201;-76
2021/12/17 05:09:07;;;;;;;16.03;9.63;;;;;;;6.55;100.00;102956.59;5073287;28;20186;-77
2021/12/17 05:19:53;;;;;;;16.57;9.77;;;;;;;6.60;100.00;102936.09;5073356;28;20205;-76
2021/12/17 05:22:19;;;;;;;11.80;8.70;;;;;;;6.57;100.00;102934.66;5073285;28;20167;-76
2021/12/17 05:24:45;;;;;;;11.10;8.93;;;;;;;6.51;100.00;102930.97;5072973;28;20170;-77
2021/12/17 05:27:11;;;;;;;12.67;8.87;;;;;;;6.47;100.00;102929.72;5073191;28;20574;-76
2021/12/17 05:29:37;;;;;;;20.27;10.10;;;;;;;6.46;100.00;102936.22;5073202;28;20267;-76
2021/12/17 05:32:03;;;;;;;16.63;9.83;;;;;;;6.46;100.00;102941.63;5073219;28;20206;-76
2021/12/17 05:34:29;;;;;;;15.10;9.80;;;;;;;6.51;100.00;102952.69;5073002;28;20640;-76
2021/12/17 05:36:54;;;;;;;16.90;10.67;;;;;;;6.54;100.00;102960.38;5072761;28;20198;-76
2021/12/17 05:39:20;;;;;;;14.07;8.80;;;;;;;6.57;100.00;102962.66;5073309;28;20170;-76
2021/12/17 05:41:45;;;;;;;14.10;8.43;;;;;;;6.56;100.00;102960.16;5073047;28;20177;-77
2021/12/17 05:44:14;;;;;;;16.93;10.33;;;;;;;6.53;100.00;102956.00;5072811;28;20181;-77
2021/12/17 05:46:51;;;;;;;10.73;7.73;;;;;;;6.47;100.00;102954.16;5072734;28;20228;-77
2021/12/17 05:49:18;;;;;;;17.43;9.00;;;;;;;6.49;100.00;102957.47;5072774;28;20643;-76
2021/12/17 05:51:44;;;;;;;17.27;9.70;;;;;;;6.51;100.00;102963.53;5072585;28;20251;-76
2021/12/17 05:54:11;;;;;;;11.93;8.03;;;;;;;6.52;100.00;102951.63;5072975;28;20171;-76
2021/12/17 05:56:37;;;;;;;13.10;8.63;;;;;;;6.49;100.00;102948.50;5072232;28;20221;-76
2021/12/17 05:59:03;;;;;;;18.70;10.90;;;;;;;6.48;100.00;102934.09;5072558;28;20594;-76
2021/12/17 06:01:28;;;;;;;16.67;8.30;;;;;;;6.47;100.00;102932.44;5072677;28;20170;-76
2021/12/17 06:03:54;;;;;;;15.37;9.77;;;;;;;6.46;100.00;102929.94;5072432;28;20179;-77
2021/12/17 06:06:26;;;;;;;15.00;9.90;;;;;;;6.47;100.00;102943.28;5072313;28;20194;-76
2021/12/17 06:08:52;;;;;;;17.90;9.60;;;;;;;6.49;100.00;102929.50;5071910;28;20536;-76
2021/12/17 06:11:17;;;;;;;15.10;9.67;;;;;;;6.49;100.00;102935.75;5072294;28;20197;-76
2021/12/17 06:13:42;;;;;;;15.67;9.70;;;;;;;6.50;100.00;102945.56;5072010;28;20175;-76
2021/12/17 06:16:08;;;;;;;18.00;9.10;;;;;;;6.45;100.00;102933.72;5072154;28;20220;-76
2021/12/17 06:18:33;;;;;;;11.00;7.27;;;;;;;6.40;100.00;102937.09;5072492;28;20174;-76
2021/12/17 06:20:58;;;;;;;15.97;8.80;;;;;;;6.38;100.00;102924.81;5072220;28;20224;-77
2021/12/17 06:23:24;;;;;;;13.77;9.07;;;;;;;6.38;100.00;102941.94;5072162;28;20228;-76
2021/12/17 06:25:49;;;;;;;15.70;9.20;;;;;;;6.40;100.00;102941.72;5071929;28;20531;-76
2021/12/17 06:28:16;;;;;;;14.50;9.47;;;;;;;6.41;100.00;102943.38;5072377;28;20524;-76
2021/12/17 06:30:42;;;;;;;14.57;8.80;;;;;;;6.41;100.00;102946.09;5072347;28;20197;-76
2021/12/17 06:33:08;;;;;;;19.23;10.40;;;;;;;6.41;100.00;102944.19;5072031;28;20297;-76
2021/12/17 06:35:33;;;;;;;14.23;8.73;;;;;;;6.42;100.00;102945.03;5071630;28;20174;-77
2021/12/17 06:37:59;;;;;;;21.03;9.87;;;;;;;6.45;100.00;102945.41;5071773;28;20182;-77
2021/12/17 06:40:24;;;;;;;17.50;9.97;;;;;;;6.46;100.00;102943.53;5071549;28;20181;-77
2021/12/17 06:42:50;;;;;;;20.77;9.80;;;;;;;6.46;100.00;102955.22;5072215;28;20170;-76
2021/12/17 06:45:23;;;;;;;15.83;9.20;;;;;;;6.43;100.00;102954.84;5071737;28;20253;-76
2021/12/17 06:47:55;;;;;;;21.40;10.60;;;;;;;6.44;100.00;102959.22;5071952;28;20641;-76
2021/12/17 07:01:18;;;;;;;22.90;10.27;;;;;;;6.48;100.00;102958.53;5071242;28;20274;-76
2021/12/17 07:22:46;;;;;;;13.17;8.10;;;;;;;6.51;100.00;102952.69;5071059;28;20181;-75
2021/12/17 07:40:32;;;;;;;16.00;8.88;;;;;;;6.52;100.00;102954.34;5070675;28;20512;-78
2021/12/17 07:43:01;;;;;;;14.93;7.63;;;;;;;6.53;100.00;102950.56;5070626;28;20688;-77
2021/12/17 07:45:26;;;;;;;12.73;7.90;;;;;;;6.56;100.00;102960.97;5070514;28;20201;-78
2021/12/17 07:47:52;;;;;;;12.87;7.50;;;;;;;6.61;100.00;102963.03;5069596;28;20176;-78
2021/12/17 07:50:17;;;;;;;14.10;8.37;;;;;;;6.63;100.00;102966.34;5070831;28;20202;-77
2021/12/17 07:52:43;;;;;;;11.37;7.20;;;;;;;6.64;100.00;102972.59;5070439;28;20213;-78
2021/12/17 07:55:09;;;;;;;10.03;7.83;;;;;;;6.67;100.00;102959.44;5070534;28;20182;-81
2021/12/17 07:57:34;;;;;;;10.73;7.43;;;;;;;6.69;100.00;102959.22;5070195;28;20179;-78
2021/12/17 08:00:00;;;;;;;12.30;7.57;;;;;;;6.70;100.00;102963.59;5070844;28;20174;-76
2021/12/17 08:02:25;;;;;;;13.07;7.13;;;;;;;6.70;100.00;102963.59;5070472;28;20186;-76
2021/12/17 08:04:50;;;;;;;8.87;5.43;;;;;;;6.68;100.00;102942.06;5070231;28;20175;-77
2021/12/17 08:07:16;;;;;;;9.00;6.10;;;;;;;6.64;100.00;102934.56;5070368;28;20170;-76
2021/12/17 08:09:42;;;;;;;12.07;6.80;;;;;;;6.62;100.00;102948.38;5070747;28;20697;-76
2021/12/17 08:12:09;;;;;;;9.37;6.27;;;;;;;6.63;100.00;102938.34;5070221;28;20263;-76
2021/12/17 08:14:35;;;;;;;10.03;6.00;;;;;;;6.68;100.00;102949.41;5070488;28;20171;-76
2021/12/17 08:17:31;;;;;;;13.03;6.33;;;;;;;6.67;100.00;102945.03;5070078;28;20167;-76
2021/12/17 08:23:34;;;;;;;9.33;5.47;;;;;;;6.64;100.00;102951.69;5008055;28;20208;-77
2021/12/17 08:28:18;;;;;;;13.73;6.40;;;;;;;6.69;100.00;102948.34;5047409;28;20649;-76
2021/12/17 08:30:43;;;;;;;8.97;5.33;;;;;;;6.69;100.00;102957.31;5069758;28;20285;-76
2021/12/17 08:33:09;;;;;;;9.53;5.53;;;;;;;6.66;100.00;102957.78;5073911;28;20254;-76
2021/12/17 08:35:37;;;;;;;6.50;4.50;;;;;;;6.64;100.00;102954.41;5074032;28;20666;-76
2021/12/17 08:38:06;;;;;;;4.70;3.37;;;;;;;6.61;100.00;102964.91;5067229;28;20185;-76
2021/12/17 08:40:33;;;;;;;5.00;3.83;;;;;;;6.58;100.00;102963.47;5073724;28;20398;-76
2021/12/17 08:42:59;;;;;;;6.70;4.83;;;;;;;6.56;100.00;102969.13;5074082;28;20178;-76
2021/12/17 08:45:25;;;;;;;8.40;4.43;;;;;;;6.54;100.00;102963.09;5073886;28;20641;-76
2021/12/17 08:47:50;;;;;;;5.87;4.63;;;;;;;6.53;100.00;102972.31;5074104;28;20213;-76
2021/12/17 08:50:18;;;;;;;5.60;3.80;;;;;;;6.54;100.00;102978.56;5074000;28;20813;-76
2021/12/17 08:52:45;;;;;;;5.13;3.60;;;;;;;6.55;100.00;102975.63;5073863;28;20210;-76
2021/12/17 08:55:10;;;;;;;8.07;4.13;;;;;;;6.58;100.00;102979.78;5073663;28;20174;-76
2021/12/17 08:57:36;;;;;;;8.57;4.93;;;;;;;6.65;100.00;102985.13;5073648;28;20171;-76
2021/12/17 09:00:06;;;;;;;5.73;3.97;;;;;;;6.66;100.00;102992.25;5073934;28;20524;-77
2021/12/17 09:02:34;;;;;;;4.07;3.03;;;;;;;6.62;100.00;102989.13;5073992;28;20221;-77
2021/12/17 09:04:59;;;;;;;4.50;2.53;;;;;;;6.61;100.00;102986.63;5072884;28;20181;-78
2021/12/17 09:07:25;;;;;;;3.47;2.33;;;;;;;6.61;100.00;103002.94;5073328;28;20171;-77
2021/12/17 09:09:50;;;;;;;5.70;4.40;;;;;;;6.63;100.00;103008.97;5073124;28;20657;-78
2021/12/17 09:12:16;;;;;;;9.30;4.33;;;;;;;6.66;100.00;103003.13;5070513;28;20649;-78
2021/12/17 09:14:41;;;;;;;6.70;4.07;;;;;;;6.69;100.00;102995.34;5071487;28;20174;-77
2021/12/17 09:17:06;;;;;;;5.73;4.50;;;;;;;6.72;100.00;102994.06;5073114;28;20171;-79
2021/12/17 09:19:33;;;;;;;6.60;4.70;;;;;;;6.69;100.00;103000.78;5073052;28;20174;-80
2021/12/17 09:21:59;;;;;;;7.63;5.47;;;;;;;6.68;100.00;102998.28;5073160;28;20224;-78
2021/12/17 09:24:24;;;;;;;5.53;4.20;;;;;;;6.72;100.00;103000.34;5073151;28;20269;-81
2021/12/17 09:26:49;;;;;;;5.73;4.10;;;;;;;6.71;100.00;103006.81;5073048;28;20174;-76
2021/12/17 09:29:15;;;;;;;6.93;5.50;;;;;;;6.66;100.00;103006.66;5073131;28;20638;-76
2021/12/17 09:31:41;;;;;;;7.00;6.27;;;;;;;6.67;100.00;103015.66;5073164;28;20202;-76
2021/12/17 09:34:06;;;;;;;8.37;6.57;;;;;;;6.65;100.00;103015.84;5073293;28;20173;-77
2021/12/17 09:36:33;;;;;;;8.57;6.23;;;;;;;6.66;100.00;103017.53;5072919;28;20269;-76
2021/12/17 09:38:59;;;;;;;7.83;6.83;;;;;;;6.63;100.00;103008.97;5073275;28;20305;-77
2021/12/17 09:41:26;;;;;;;8.00;5.43;;;;;;;6.61;100.00;103005.66;5073216;28;20659;-76
2021/12/17 09:43:53;;;;;;;7.47;5.83;;;;;;;6.61;100.00;103011.09;5072637;28;20174;-74
2021/12/17 09:46:18;;;;;;;7.17;5.87;;;;;;;6.66;100.00;103003.13;5072841;28;20319;-74
2021/12/17 09:48:46;;;;;;;11.43;7.57;;;;;;;6.61;100.00;102997.50;5073176;28;20657;-75
2021/12/17 09:51:11;;;;;;;9.27;6.97;;;;;;;6.63;100.00;103008.97;5072978;28;20673;-74
2021/12/17 09:53:37;;;;;;;7.03;6.30;;;;;;;6.60;100.00;102999.38;5073015;28;20217;-74
2021/12/17 09:56:04;;;;;;;9.47;7.20;;;;;;;6.53;100.00;103015.75;5072687;28;20531;-74
2021/12/17 09:58:29;;;;;;;6.73;5.77;;;;;;;6.53;100.00;103015.75;5072772;28;20209;-74
2021/12/17 10:00:55;;;;;;;10.07;6.40;;;;;;;6.56;100.00;103022.63;5072955;28;20701;-75
2021/12/17 10:03:21;;;;;;;6.53;5.77;;;;;;;6.53;100.00;103034.75;5072906;28;20167;-75
2021/12/17 10:05:46;;;;;;;7.13;5.50;;;;;;;6.48;100.00;103023.72;5072701;28;20262;-75
2021/12/17 10:08:16;;;;;;;5.67;4.57;;;;;;;6.48;100.00;103029.13;5072706;28;20190;-75
2021/12/17 10:10:44;;;;;;;4.50;3.67;;;;;;;6.46;100.00;103016.84;5072699;28;20178;-75
2021/12/17 10:13:19;;;;;;;4.00;3.27;;;;;;;6.41;100.00;103022.09;5072883;28;20650;-74
2021/12/17 10:15:47;;;;;;;3.43;3.00;;;;;;;6.35;100.00;103018.38;5068371;28;20634;-74
2021/12/17 10:18:14;;;;;;;4.10;3.70;;;;;;;6.32;100.00;103039.72;5078943;28;20183;-74
2021/12/17 10:20:52;;;;;;;4.10;3.50;;;;;;;6.30;100.00;103044.53;5069334;28;20270;-75
2021/12/17 10:23:21;;;;;;;3.67;2.73;;;;;;;6.28;100.00;103050.19;5070603;28;20175;-74
2021/12/17 10:25:47;;;;;;;4.63;3.13;;;;;;;6.33;100.00;103052.22;5071926;28;20657;-75
2021/12/17 10:28:14;;;;;;;3.63;2.93;;;;;;;6.37;100.00;103040.72;5069731;28;20175;-75
2021/12/17 10:30:42;;;;;;;4.20;3.43;;;;;;;6.40;100.00;103044.88;5071307;28;20170;-75
2021/12/17 10:33:10;;;;;;;5.17;3.83;;;;;;;6.43;100.00;103037.13;5072094;28;20179;-75
2021/12/17 10:35:38;;;;;;;3.70;2.70;;;;;;;6.48;100.00;103036.47;5070067;28;20179;-75
2021/12/17 10:38:08;;;;;;;3.57;2.40;;;;;;;6.46;100.00;103036.69;5071145;28;20175;-74
2021/12/17 10:40:45;;;;;;;2.80;2.00;;;;;;;6.40;100.00;103037.56;5064267;28;20175;-74
2021/12/17 10:43:17;;;;;;;3.10;1.50;;;;;;;6.43;100.00;103042.56;5068590;28;20629;-74
2021/12/17 10:46:00;;;;;;;5.13;2.37;;;;;;;6.38;100.00;103044.28;5067101;28;20594;-74
2021/12/17 10:48:49;;;;;;;2.47;2.00;;;;;;;6.38;100.00;103039.69;5068819;28;20183;-75
2021/12/17 10:51:30;;;;;;;2.73;2.00;;;;;;;6.39;100.00;103041.34;5071534;28;20202;-75
2021/12/17 10:54:04;;;;;;;1.83;1.40;;;;;;;6.38;100.00;103047.81;5065427;28;21073;-75
2021/12/17 10:56:37;;;;;;;1.90;1.40;;;;;;;6.35;100.00;103042.81;5071160;28;20182;-75
2021/12/17 10:59:04;;;;;;;1.43;1.23;;;;;;;6.40;100.00;103050.31;5069459;28;20243;-74
2021/12/17 11:01:36;;;;;;;2.30;2.03;;;;;;;6.37;100.00;103037.19;5070122;28;20192;-74
2021/12/17 11:04:22;;;;;;;1.10;0.97;;;;;;;6.39;100.00;103040.50;5071191;28;20186;-74
2021/12/17 11:07:06;;;;;;;4.17;2.67;;;;;;;6.39;100.00;103030.47;5064019;28;20182;-74
2021/12/17 11:09:42;;;;;;;3.60;3.03;;;;;;;6.34;100.00;103034.88;5069090;28;20280;-74
2021/12/17 11:12:12;;;;;;;4.23;3.83;;;;;;;6.31;100.00;103029.91;5071062;28;20206;-74
2021/12/17 11:14:38;;;;;;;5.10;4.17;;;;;;;6.31;100.00;103036.16;5071211;28;20214;-74
2021/12/17 11:17:04;;;;;;;4.30;3.90;;;;;;;6.38;100.00;103033.41;5071385;28;20236;-74
2021/12/17 11:19:30;;;;;;;5.20;4.40;;;;;;;6.40;100.00;103037.56;5071571;28;20174;-74
2021/12/17 11:21:56;;;;;;;5.77;4.27;;;;;;;6.41;100.00;103039.22;5070946;28;20178;-74
2021/12/17 11:24:23;;;;;;;4.53;4.03;;;;;;;6.33;100.00;103030.50;5070635;28;20312;-74
2021/12/17 11:26:49;;;;;;;7.33;3.90;;;;;;;6.37;100.00;103020.91;5070636;28;20261;-74
2021/12/17 11:29:16;;;;;;;5.40;4.73;;;;;;;6.36;100.00;103033.59;5070816;28;20658;-74
2021/12/17 11:31:43;;;;;;;5.03;3.43;;;;;;;6.31;100.00;103022.59;5071221;28;20276;-74
2021/12/17 11:34:09;;;;;;;1.73;1.50;;;;;;;6.28;100.00;103016.78;5070763;28;20217;-74
2021/12/17 11:36:35;;;;;;;4.93;4.03;;;;;;;6.32;100.00;103016.09;5070478;28;20225;-74
2021/12/17 11:39:21;;;;;;;1.63;1.37;;;;;;;6.37;100.00;103021.72;5070878;28;20178;-74
2021/12/17 11:42:18;;;;;;;4.33;3.30;;;;;;;6.37;100.00;103018.19;5059188;28;20179;-74
2021/12/17 11:44:53;;;;;;;3.77;3.23;;;;;;;6.30;100.00;103020.91;5029305;28;20209;-74
2021/12/17 11:47:19;;;;;;;4.10;3.10;;;;;;;6.44;100.00;103010.81;5070505;28;20180;-74
2021/12/17 11:49:52;;;;;;;3.90;3.47;;;;;;;6.49;100.00;103019.09;5070873;28;20253;-74
2021/12/17 11:52:33;;;;;;;2.37;1.63;;;;;;;6.55;100.00;103021.78;5070589;28;20220;-74
2021/12/17 11:55:33;;;;;;;4.13;3.20;;;;;;;6.61;100.00;103030.09;5068931;28;20181;-74
2021/12/17 11:58:01;;;;;;;2.73;2.00;;;;;;;6.57;100.00;103032.44;5070536;28;20220;-74
2021/12/17 12:00:52;;;;;;;4.20;2.23;;;;;;;6.60;100.00;103025.72;5069136;28;20188;-74
2021/12/17 12:03:19;;;;;;;3.90;2.03;;;;;;;6.51;100.00;103025.19;5069966;28;20723;-74
2021/12/17 12:05:47;;;;;;;1.53;1.30;;;;;;;6.48;100.00;103028.31;5068714;28;20319;-74
2021/12/17 12:08:30;;;;;;;2.07;1.60;;;;;;;6.50;100.00;103021.59;5070284;28;20257;-74
2021/12/17 12:11:09;;;;;;;1.90;1.53;;;;;;;6.54;100.00;103017.41;5070093;28;20258;-74
2021/12/17 12:13:37;;;;;;;1.77;1.40;;;;;;;6.50;100.00;103026.19;5070512;28;20249;-74
2021/12/17 12:16:05;;;;;;;1.17;1.10;;;;;;;6.48;100.00;103028.31;5070117;28;20250;-74
2021/12/17 12:18:42;;;;;;;4.77;2.87;;;;;;;6.48;100.00;103029.13;5069297;28;20180;-75
2021/12/17 12:21:08;;;;;;;3.33;2.60;;;;;;;6.45;100.00;103024.16;5063417;28;20185;-75
2021/12/17 12:23:33;;;;;;;2.97;2.67;;;;;;;6.58;100.00;103031.38;5068320;28;20185;-75
2021/12/17 12:26:02;;;;;;;4.17;2.80;;;;;;;6.49;100.00;103027.25;5069651;28;20166;-75
2021/12/17 12:28:46;;;;;;;2.80;2.27;;;;;;;6.65;100.00;103025.88;5068836;28;20211;-74
2021/12/17 12:31:24;;;;;;;3.20;2.27;;;;;;;6.67;100.00;103021.09;5070020;28;20225;-74
2021/12/17 12:33:58;;;;;;;2.67;2.43;;;;;;;6.61;100.00;103027.38;5070165;28;20645;-74
2021/12/17 12:36:51;;;;;;;2.17;1.83;;;;;;;6.63;100.00;103017.94;5069796;28;20415;-74
2021/12/17 12:39:18;;;;;;;3.17;2.53;;;;;;;6.68;100.00;103020.84;5070089;28;20189;-74
2021/12/17 12:42:03;;;;;;;3.87;2.73;;;;;;;6.70;100.00;103016.03;5069945;28;20527;-75
2021/12/17 12:44:44;;;;;;;3.50;2.60;;;;;;;6.70;100.00;103009.75;5048432;28;20190;-74
2021/12/17 12:47:35;;;;;;;4.03;2.63;;;;;;;6.72;100.00;103005.75;5069921;28;20172;-74
2021/12/17 12:50:04;;;;;;;2.57;2.30;;;;;;;6.71;100.00;103006.81;5069863;28;20576;-75
2021/12/17 12:52:29;;;;;;;3.27;2.03;;;;;;;6.74;100.00;103000.09;5069894;28;20198;-74
2021/12/17 12:55:00;;;;;;;3.27;2.97;;;;;;;6.72;100.00;102996.78;5069598;28;20170;-74
2021/12/17 12:57:28;;;;;;;4.70;3.47;;;;;;;6.66;100.00;102993.09;5069899;28;20521;-74
2021/12/17 12:59:57;;;;;;;4.23;3.17;;;;;;;6.70;100.00;102991.56;5069877;28;20177;-74
2021/12/17 13:02:26;;;;;;;5.13;4.00;;;;;;;6.74;100.00;102992.78;5069827;28;20630;-74
2021/12/17 13:04:57;;;;;;;5.17;3.70;;;;;;;6.77;100.00;102992.34;5069326;28;20179;-74
2021/12/17 13:07:36;;;;;;;4.17;3.17;;;;;;;6.78;100.00;102987.72;5068388;28;20563;-74
2021/12/17 13:10:19;;;;;;;5.57;3.37;;;;;;;6.83;100.00;102987.91;5069604;28;20236;-74
2021/12/17 13:13:27;;;;;;;3.70;3.20;;;;;;;6.90;100.00;102998.69;5069730;28;20225;-74
2021/12/17 13:24:08;;;;;;;4.30;2.90;;;;;;;6.91;100.00;102990.31;5073542;28;20174;-74
2021/12/17 13:26:35;;;;;;;4.40;2.77;;;;;;;6.89;100.00;102991.59;5073014;28;20181;-74
2021/12/17 13:29:12;;;;;;;3.17;2.50;;;;;;;6.86;100.00;102990.19;5073295;28;20178;-74
2021/12/17 13:31:44;;;;;;;2.97;2.60;;;;;;;6.88;100.00;102987.22;5072785;28;20668;-73
2021/12/17 13:34:27;;;;;;;4.67;2.80;;;;;;;6.85;100.00;102983.91;5073199;28;20653;-73
2021/12/17 13:37:07;;;;;;;2.03;1.67;;;;;;;6.84;100.00;102986.84;5073043;28;20174;-73
2021/12/17 13:40:07;;;;;;;3.23;2.90;;;;;;;6.83;100.00;102977.88;5073018;28;20265;-73
2021/12/17 13:42:38;;;;;;;4.27;3.80;;;;;;;6.88;100.00;102987.22;5072888;28;20224;-73
2021/12/17 13:45:09;;;;;;;4.33;3.73;;;;;;;6.95;100.00;102999.72;5072806;28;20208;-74
2021/12/17 13:47:43;;;;;;;4.83;3.97;;;;;;;6.90;100.00;102990.56;5072848;28;20171;-74
2021/12/17 13:50:22;;;;;;;3.80;2.67;;;;;;;6.96;100.00;103004.09;5072801;28;20182;-74
2021/12/17 13:53:03;;;;;;;5.00;4.07;;;;;;;6.96;100.00;103000.53;5072675;28;20515;-73
2021/12/17 13:55:41;;;;;;;4.37;3.20;;;;;;;6.96;100.00;102995.09;5072635;28;20550;-73
2021/12/17 13:58:13;;;;;;;5.50;3.47;;;;;;;6.96;100.00;102993.22;5072805;28;20166;-74
2021/12/17 14:00:42;;;;;;;5.33;4.37;;;;;;;6.94;100.00;102989.88;5072860;28;20618;-73
2021/12/17 14:03:11;;;;;;;4.23;3.47;;;;;;;6.97;100.00;102983.19;5072728;28;20582;-73
2021/12/17 14:06:17;;;;;;;4.80;3.90;;;;;;;6.94;100.00;102976.28;5072552;28;20181;-73
2021/12/17 14:08:27;;;;;;;5.23;4.17;;;;;;;6.94;100.00;102992.59;5070220;28;20209;-73
2021/12/17 14:10:56;;;;;;;5.63;4.50;;;;;;;6.97;100.00;102984.00;5072288;28;20170;-73
2021/12/17 14:13:24;;;;;;;4.73;4.00;;;;;;;6.99;100.00;102987.31;5072449;28;20194;-74
2021/12/17 14:15:51;;;;;;;3.93;2.97;;;;;;;7.02;100.00;102986.88;5072221;28;20166;-74
2021/12/17 14:18:24;;;;;;;6.07;3.17;;;;;;;7.01;100.00;102987.94;5072437;28;20174;-74
2021/12/17 14:21:01;;;;;;;4.83;4.30;;;;;;;7.02;100.00;102977.88;5072616;28;20203;-73
2021/12/17 14:23:28;;;;;;;4.83;4.30;;;;;;;7.02;100.00;102975.16;5072305;28;20283;-74
2021/12/17 14:26:01;;;;;;;5.03;3.27;;;;;;;7.00;100.00;102982.72;5070791;28;20228;-74